createdAt,value
2023-03-19T00:53:13.700Z,100.00
2023-03-19T00:56:44.802Z,100.00
2023-03-19T01:00:21.689Z,100.00
2023-03-19T01:16:14.876Z,100.00
2023-03-19T01:20:41.503Z,100.00
2023-03-19T01:24:12.919Z,100.00
2023-03-19T02:41:54.604Z,100.00
2023-03-19T02:57:58.105Z,100.00
2023-03-19T03:01:52.349Z,100.00
2023-03-19T03:05:11.398Z,100.00
2023-03-19T03:13:31.839Z,100.00
2023-03-19T03:28:18.934Z,100.00
2023-03-19T03:31:48.220Z,100.00
2023-03-19T03:40:25.709Z,100.00
2023-03-19T03:44:14.720Z,100.00
2023-03-19T03:47:42.677Z,100.00
2023-03-19T03:50:57.829Z,100.00
2023-03-19T03:58:13.777Z,100.00
2023-03-19T04:05:22.763Z,100.00
2023-03-19T04:18:10.648Z,100.00
2023-03-19T04:26:44.953Z,100.00
2023-03-19T04:38:26.717Z,100.00
2023-03-19T04:46:35.707Z,100.00
2023-03-19T04:49:43.116Z,100.00
2023-03-19T04:52:54.006Z,100.00
2023-03-19T05:01:30.604Z,100.00
2023-03-19T05:14:22.245Z,100.00
2023-03-19T05:18:56.612Z,100.00
2023-03-19T05:26:16.945Z,100.00
2023-03-19T08:29:36.724Z,100.00
2023-03-19T08:32:46.331Z,100.00
2023-03-19T08:35:57.737Z,100.00
2023-03-19T08:39:02.967Z,100.00
2023-03-19T08:42:13.589Z,100.00
2023-03-19T08:45:32.041Z,100.00
2023-03-19T08:48:35.445Z,100.00
2023-03-19T12:27:35.902Z,32.68
2023-03-19T12:31:23.432Z,33.72
2023-03-19T12:34:51.398Z,32.96
2023-03-19T12:42:08.975Z,32.12
2023-03-19T12:46:03.455Z,32.06
2023-03-19T13:29:06.758Z,26.32
2023-03-19T13:32:50.909Z,26.43
2023-03-19T13:35:55.726Z,26.25
2023-03-19T13:39:13.046Z,26.02
2023-03-19T13:42:42.317Z,25.95
2023-03-19T13:45:45.628Z,26.26
2023-03-19T13:48:54.139Z,26.26
2023-03-19T13:52:39.093Z,26.04
2023-03-19T13:55:54.823Z,25.52
2023-03-19T13:59:33.415Z,25.00
2023-03-19T14:05:24.179Z,24.46
2023-03-19T14:08:53.743Z,24.83
2023-03-19T14:12:18.069Z,24.96
2023-03-19T14:15:24.062Z,24.72
2023-03-19T14:18:38.357Z,24.55
2023-03-19T14:22:09.368Z,24.35
2023-03-19T14:25:30.269Z,24.27
2023-03-19T14:28:44.880Z,24.08
2023-03-19T14:31:54.268Z,24.04
2023-03-19T14:35:07.804Z,24.05
2023-03-19T14:38:27.106Z,23.89
2023-03-19T14:41:40.766Z,23.80
2023-03-19T14:45:21.407Z,23.81
2023-03-19T14:49:06.831Z,23.62
2023-03-19T14:53:07.482Z,23.45
2023-03-19T14:56:25.756Z,23.70
2023-03-19T14:59:37.933Z,24.23
2023-03-19T15:03:20.346Z,24.50
2023-03-19T15:07:02.360Z,24.54
2023-03-19T15:20:44.110Z,25.28
2023-03-19T15:24:30.831Z,25.58
2023-03-19T15:28:34.527Z,25.99
2023-03-19T15:37:37.137Z,26.80
2023-03-19T15:41:16.072Z,27.11
2023-03-19T15:45:12.394Z,27.43
2023-03-19T15:50:02.400Z,28.06
2023-03-19T15:58:51.365Z,30.34
2023-03-19T16:08:00.227Z,33.50
2023-03-19T16:16:06.490Z,36.45
2023-03-19T16:24:44.283Z,39.31
2023-03-19T16:32:48.006Z,41.49
2023-03-19T16:36:37.583Z,42.56
2023-03-19T17:32:20.832Z,52.42
2023-03-19T17:35:35.185Z,53.12
2023-03-19T17:59:17.302Z,58.78
2023-03-19T18:06:28.251Z,63.11
2023-03-19T19:23:46.632Z,100.00
2023-03-19T19:27:24.648Z,100.00
2023-03-19T19:52:04.464Z,100.00
2023-03-19T19:56:31.309Z,100.00
2023-03-19T19:59:39.326Z,100.00
2023-03-19T20:08:39.680Z,100.00
2023-03-19T20:23:46.878Z,100.00
2023-03-19T20:27:23.813Z,100.00
2023-03-19T20:45:45.249Z,100.00
2023-03-19T20:48:57.423Z,100.00
2023-03-19T20:52:09.829Z,100.00
2023-03-19T20:55:21.881Z,100.00
2023-03-19T21:03:54.097Z,100.00
2023-03-19T21:07:02.039Z,100.00
2023-03-19T21:10:18.703Z,100.00
2023-03-19T21:20:07.450Z,100.00
2023-03-19T21:24:30.876Z,100.00
2023-03-19T21:27:50.767Z,100.00
2023-03-19T21:31:37.947Z,100.00
2023-03-19T21:40:26.843Z,100.00
2023-03-19T21:43:50.364Z,100.00
2023-03-19T21:47:48.549Z,100.00
2023-03-19T21:51:16.542Z,100.00
2023-03-19T21:55:47.325Z,100.00
2023-03-19T21:59:33.460Z,100.00
2023-03-19T22:05:26.133Z,100.00
2023-03-19T22:08:44.647Z,100.00
2023-03-19T22:11:50.694Z,100.00
2023-03-19T22:14:59.669Z,100.00
2023-03-19T22:18:08.259Z,100.00
2023-03-19T22:21:17.956Z,100.00
2023-03-19T22:24:26.352Z,100.00
2023-03-19T22:27:34.983Z,100.00
2023-03-19T22:30:41.837Z,100.00
2023-03-19T22:33:47.077Z,100.00
2023-03-19T22:36:55.296Z,100.00
2023-03-19T22:40:01.120Z,100.00
2023-03-19T22:43:34.020Z,100.00
2023-03-19T22:46:42.862Z,100.00
2023-03-19T22:49:52.599Z,100.00
2023-03-19T22:53:02.370Z,100.00
2023-03-19T22:56:06.028Z,100.00
2023-03-19T22:59:11.506Z,100.00
2023-03-19T23:02:16.084Z,100.00
2023-03-19T23:05:33.769Z,100.00
2023-03-19T23:08:38.795Z,100.00
2023-03-19T23:11:42.761Z,100.00
2023-03-19T23:14:55.276Z,100.00
2023-03-19T23:18:04.411Z,100.00
2023-03-19T23:21:17.220Z,100.00
2023-03-19T23:24:23.839Z,100.00
2023-03-19T23:27:33.213Z,100.00
2023-03-19T23:30:44.191Z,100.00
2023-03-19T23:33:49.919Z,100.00
2023-03-19T23:36:54.441Z,100.00
2023-03-19T23:40:03.146Z,100.00
2023-03-19T23:43:17.775Z,100.00
2023-03-19T23:46:23.339Z,100.00
2023-03-19T23:49:33.452Z,100.00
2023-03-19T23:52:41.155Z,100.00
2023-03-19T23:55:45.563Z,100.00
2023-03-19T23:58:52.574Z,100.00
